WZZ243 LDZA-LDPL
Flight info
| Callsign | WZZ243 |
|---|---|
| Flight time | 0h 27m |
| Altitude | 20000 |
| Route | KOTOR M986 KULEN |
| Aircraft | A321/M-SDE3FGHIRWY/LB1 |
Departure
| Time | 2026-04-25 18:22 |
|---|---|
| Airport | Zagreb Franjo Tuđman International Airport (LDZA) |
Arrival
| Time | 2026-04-25 18:49 |
|---|---|
| Airport | Pula Airport (LDPL) |
| Time | Latitude | Longitude | Altitude | Speed | Heading |
|---|---|---|---|---|---|
| 2026-04-25 18:02 | 45.74248 | 16.07906 | 366 ft | 0 kts | 135° |
| 2026-04-25 18:15 | 45.74258 | 16.07892 | 365 ft | 3 kts | 135° |
| 2026-04-25 18:16 | 45.74272 | 16.07873 | 361 ft | 3 kts | 135° |
| 2026-04-25 18:16 | 45.74286 | 16.07854 | 362 ft | 3 kts | 156° |
| 2026-04-25 18:16 | 45.74319 | 16.07852 | 364 ft | 1 kts | 227° |
| 2026-04-25 18:17 | 45.74319 | 16.07854 | 364 ft | 0 kts | 223° |
| 2026-04-25 18:17 | 45.74319 | 16.07853 | 364 ft | 0 kts | 223° |
| 2026-04-25 18:17 | 45.74306 | 16.07834 | 361 ft | 7 kts | 225° |
| 2026-04-25 18:18 | 45.74246 | 16.07747 | 362 ft | 13 kts | 225° |
| 2026-04-25 18:18 | 45.74176 | 16.07642 | 360 ft | 17 kts | 227° |
| 2026-04-25 18:18 | 45.74096 | 16.07518 | 357 ft | 16 kts | 225° |
| 2026-04-25 18:18 | 45.74076 | 16.07393 | 360 ft | 15 kts | 308° |
| 2026-04-25 18:19 | 45.74158 | 16.07280 | 360 ft | 17 kts | 316° |
| 2026-04-25 18:19 | 45.74218 | 16.07162 | 361 ft | 14 kts | 261° |
| 2026-04-25 18:19 | 45.74147 | 16.07049 | 357 ft | 17 kts | 225° |
| 2026-04-25 18:19 | 45.74058 | 16.06915 | 356 ft | 20 kts | 228° |
| 2026-04-25 18:20 | 45.73952 | 16.06750 | 357 ft | 25 kts | 226° |
| 2026-04-25 18:20 | 45.73832 | 16.06570 | 358 ft | 24 kts | 226° |
| 2026-04-25 18:20 | 45.73741 | 16.06424 | 361 ft | 13 kts | 250° |
| 2026-04-25 18:20 | 45.73791 | 16.06326 | 359 ft | 12 kts | 317° |
| 2026-04-25 18:21 | 45.73856 | 16.06251 | 361 ft | 11 kts | 337° |
| 2026-04-25 18:21 | 45.73954 | 16.06359 | 364 ft | 44 kts | 47° |
| 2026-04-25 18:21 | 45.74329 | 16.06934 | 362 ft | 113 kts | 46° |
| 2026-04-25 18:21 | 45.74993 | 16.07977 | 419 ft | 162 kts | 49° |
| 2026-04-25 18:22 | 45.75718 | 16.09114 | 1203 ft | 150 kts | 48° |
| 2026-04-25 18:22 | 45.76201 | 16.09858 | 1615 ft | 153 kts | 46° |
| 2026-04-25 18:22 | 45.77155 | 16.11375 | 2322 ft | 159 kts | 49° |
| 2026-04-25 18:22 | 45.77926 | 16.12652 | 2569 ft | 179 kts | 49° |
| 2026-04-25 18:23 | 45.78792 | 16.14084 | 2764 ft | 201 kts | 48° |
| 2026-04-25 18:23 | 45.79760 | 16.15675 | 2897 ft | 224 kts | 48° |
| 2026-04-25 18:23 | 45.80845 | 16.17449 | 3077 ft | 250 kts | 48° |
| 2026-04-25 18:23 | 45.82045 | 16.19399 | 3436 ft | 270 kts | 48° |
| 2026-04-25 18:24 | 45.83313 | 16.21446 | 4098 ft | 276 kts | 45° |
| 2026-04-25 18:24 | 45.84866 | 16.23032 | 4843 ft | 276 kts | 19° |
| 2026-04-25 18:24 | 45.86732 | 16.23480 | 5596 ft | 273 kts | 354° |
| 2026-04-25 18:24 | 45.88554 | 16.22818 | 6383 ft | 271 kts | 331° |
| 2026-04-25 18:25 | 45.90015 | 16.21182 | 7091 ft | 272 kts | 308° |
| 2026-04-25 18:25 | 45.90897 | 16.18786 | 7783 ft | 275 kts | 285° |
| 2026-04-25 18:25 | 45.91008 | 16.16034 | 8461 ft | 281 kts | 261° |
| 2026-04-25 18:25 | 45.90283 | 16.13415 | 9131 ft | 288 kts | 236° |
| 2026-04-25 18:26 | 45.88919 | 16.11285 | 9815 ft | 293 kts | 225° |
| 2026-04-25 18:26 | 45.87424 | 16.09224 | 10228 ft | 307 kts | 225° |
| 2026-04-25 18:26 | 45.85825 | 16.07022 | 10379 ft | 330 kts | 225° |
| 2026-04-25 18:26 | 45.84117 | 16.04677 | 10663 ft | 346 kts | 225° |
| 2026-04-25 18:27 | 45.82366 | 16.02272 | 11250 ft | 350 kts | 225° |
| 2026-04-25 18:27 | 45.80604 | 15.99851 | 11929 ft | 352 kts | 225° |
| 2026-04-25 18:27 | 45.78829 | 15.97413 | 12608 ft | 355 kts | 225° |
| 2026-04-25 18:27 | 45.77041 | 15.94959 | 13284 ft | 357 kts | 225° |
| 2026-04-25 18:28 | 45.75242 | 15.92496 | 13939 ft | 359 kts | 226° |
| 2026-04-25 18:28 | 45.73429 | 15.90013 | 14540 ft | 362 kts | 226° |
| 2026-04-25 18:28 | 45.71628 | 15.87548 | 15131 ft | 364 kts | 226° |
| 2026-04-25 18:29 | 45.67933 | 15.82510 | 16328 ft | 370 kts | 226° |
| 2026-04-25 18:29 | 45.66063 | 15.79962 | 16918 ft | 373 kts | 226° |
| 2026-04-25 18:30 | 45.60359 | 15.72204 | 18619 ft | 381 kts | 226° |
| 2026-04-25 18:30 | 45.58435 | 15.69591 | 19167 ft | 383 kts | 226° |
| 2026-04-25 18:30 | 45.56502 | 15.66970 | 19710 ft | 384 kts | 226° |
| 2026-04-25 18:30 | 45.54562 | 15.64346 | 19916 ft | 384 kts | 226° |
| 2026-04-25 18:31 | 45.52625 | 15.61731 | 19967 ft | 382 kts | 226° |
| 2026-04-25 18:31 | 45.50695 | 15.59130 | 19967 ft | 381 kts | 226° |
| 2026-04-25 18:31 | 45.48768 | 15.56532 | 19965 ft | 381 kts | 226° |
| 2026-04-25 18:31 | 45.46844 | 15.53937 | 19975 ft | 381 kts | 226° |
| 2026-04-25 18:32 | 45.44946 | 15.51382 | 19968 ft | 380 kts | 226° |
| 2026-04-25 18:32 | 45.43023 | 15.48793 | 19978 ft | 380 kts | 226° |
| 2026-04-25 18:32 | 45.41102 | 15.46204 | 19981 ft | 380 kts | 226° |
| 2026-04-25 18:32 | 45.39181 | 15.43616 | 19975 ft | 380 kts | 226° |
| 2026-04-25 18:33 | 45.37262 | 15.41030 | 19981 ft | 380 kts | 226° |
| 2026-04-25 18:33 | 45.35334 | 15.38437 | 19980 ft | 380 kts | 226° |
| 2026-04-25 18:33 | 45.33405 | 15.35853 | 19979 ft | 380 kts | 226° |
| 2026-04-25 18:33 | 45.31476 | 15.33277 | 19981 ft | 380 kts | 226° |
| 2026-04-25 18:34 | 45.29550 | 15.30710 | 20000 ft | 380 kts | 226° |
| 2026-04-25 18:34 | 45.27623 | 15.28140 | 20003 ft | 380 kts | 226° |
| 2026-04-25 18:34 | 45.25691 | 15.25565 | 19994 ft | 381 kts | 226° |
| 2026-04-25 18:34 | 45.23764 | 15.22995 | 20000 ft | 381 kts | 226° |
| 2026-04-25 18:35 | 45.21838 | 15.20425 | 19986 ft | 377 kts | 226° |
| 2026-04-25 18:35 | 45.19941 | 15.17898 | 19613 ft | 371 kts | 226° |
| 2026-04-25 18:35 | 45.18079 | 15.15424 | 19080 ft | 361 kts | 226° |
| 2026-04-25 18:35 | 45.16436 | 15.12794 | 18613 ft | 354 kts | 238° |
| 2026-04-25 18:36 | 45.15223 | 15.09787 | 18121 ft | 350 kts | 245° |
| 2026-04-25 18:36 | 45.14121 | 15.06720 | 17583 ft | 349 kts | 245° |
| 2026-04-25 18:36 | 45.13035 | 15.03706 | 17083 ft | 347 kts | 244° |
| 2026-04-25 18:36 | 45.11938 | 15.00671 | 16573 ft | 345 kts | 245° |
| 2026-04-25 18:37 | 45.10844 | 14.97651 | 16057 ft | 344 kts | 244° |
| 2026-04-25 18:37 | 45.09749 | 14.94646 | 15565 ft | 342 kts | 244° |
| 2026-04-25 18:37 | 45.08658 | 14.91662 | 15077 ft | 341 kts | 244° |
| 2026-04-25 18:37 | 45.07574 | 14.88688 | 14595 ft | 340 kts | 244° |
| 2026-04-25 18:38 | 45.06492 | 14.85723 | 14119 ft | 339 kts | 244° |
| 2026-04-25 18:38 | 45.05412 | 14.82768 | 13627 ft | 337 kts | 244° |
| 2026-04-25 18:38 | 45.04337 | 14.79826 | 13103 ft | 336 kts | 244° |
| 2026-04-25 18:38 | 45.03262 | 14.76891 | 12580 ft | 335 kts | 244° |
| 2026-04-25 18:39 | 45.02193 | 14.73979 | 12081 ft | 333 kts | 244° |
| 2026-04-25 18:39 | 45.01139 | 14.71108 | 11572 ft | 324 kts | 244° |
| 2026-04-25 18:39 | 45.00113 | 14.68313 | 11077 ft | 318 kts | 244° |
| 2026-04-25 18:39 | 44.99096 | 14.65546 | 10586 ft | 315 kts | 244° |
| 2026-04-25 18:40 | 44.98093 | 14.62821 | 10207 ft | 309 kts | 244° |
| 2026-04-25 18:40 | 44.97138 | 14.60222 | 9813 ft | 294 kts | 244° |
| 2026-04-25 18:40 | 44.96220 | 14.57728 | 9402 ft | 277 kts | 244° |
| 2026-04-25 18:40 | 44.95336 | 14.55322 | 8891 ft | 281 kts | 244° |
| 2026-04-25 18:41 | 44.94429 | 14.52853 | 8392 ft | 284 kts | 244° |
| 2026-04-25 18:41 | 44.93526 | 14.50403 | 7932 ft | 279 kts | 244° |
| 2026-04-25 18:41 | 44.92626 | 14.47964 | 7426 ft | 283 kts | 244° |
| 2026-04-25 18:41 | 44.91713 | 14.45487 | 6939 ft | 282 kts | 244° |
| 2026-04-25 18:42 | 44.90837 | 14.43044 | 6492 ft | 275 kts | 249° |
| 2026-04-25 18:42 | 44.90613 | 14.42195 | 6391 ft | 270 kts | 253° |
| 2026-04-25 18:42 | 44.90234 | 14.37999 | 5885 ft | 252 kts | 269° |
| 2026-04-25 18:42 | 44.90197 | 14.35575 | 5580 ft | 243 kts | 269° |
| 2026-04-25 18:43 | 44.90158 | 14.33265 | 5281 ft | 234 kts | 269° |
| 2026-04-25 18:43 | 44.90118 | 14.30983 | 4986 ft | 232 kts | 269° |
| 2026-04-25 18:43 | 44.90078 | 14.28707 | 4676 ft | 231 kts | 269° |
| 2026-04-25 18:43 | 44.90039 | 14.26444 | 4380 ft | 231 kts | 269° |
| 2026-04-25 18:44 | 44.89997 | 14.24182 | 4079 ft | 231 kts | 268° |
| 2026-04-25 18:44 | 44.89953 | 14.21928 | 3777 ft | 229 kts | 269° |
| 2026-04-25 18:44 | 44.89910 | 14.19684 | 3482 ft | 228 kts | 269° |
| 2026-04-25 18:44 | 44.89867 | 14.17468 | 3201 ft | 224 kts | 268° |
| 2026-04-25 18:45 | 44.89826 | 14.15323 | 2962 ft | 214 kts | 268° |
| 2026-04-25 18:45 | 44.89785 | 14.13241 | 2848 ft | 210 kts | 268° |
| 2026-04-25 18:45 | 44.89746 | 14.11274 | 2821 ft | 189 kts | 268° |
| 2026-04-25 18:45 | 44.89711 | 14.09521 | 2800 ft | 172 kts | 269° |
| 2026-04-25 18:46 | 44.89677 | 14.07869 | 2784 ft | 167 kts | 268° |
| 2026-04-25 18:46 | 44.89643 | 14.06231 | 2387 ft | 169 kts | 268° |
| 2026-04-25 18:46 | 44.89609 | 14.04582 | 1952 ft | 167 kts | 268° |
| 2026-04-25 18:46 | 44.89577 | 14.03021 | 1650 ft | 154 kts | 268° |
| 2026-04-25 18:47 | 44.89547 | 14.01533 | 1403 ft | 150 kts | 268° |
| 2026-04-25 18:47 | 44.89517 | 14.00074 | 1183 ft | 148 kts | 267° |
| 2026-04-25 18:47 | 44.89487 | 13.98623 | 975 ft | 148 kts | 268° |
| 2026-04-25 18:47 | 44.89457 | 13.97188 | 775 ft | 148 kts | 268° |
| 2026-04-25 18:48 | 44.89426 | 13.95736 | 568 ft | 149 kts | 268° |
| 2026-04-25 18:48 | 44.89394 | 13.94261 | 336 ft | 151 kts | 268° |
| 2026-04-25 18:48 | 44.89367 | 13.92849 | 224 ft | 131 kts | 268° |
| 2026-04-25 18:48 | 44.89348 | 13.91800 | 196 ft | 91 kts | 268° |
| 2026-04-25 18:49 | 44.89328 | 13.90991 | 169 ft | 74 kts | 268° |
| 2026-04-25 18:49 | 44.89316 | 13.90455 | 155 ft | 22 kts | 268° |